This is the latest recevied weather packets stored in our database for station/object YO6IKB-10. If no packets are shown the sender has not sent any weather packets the latest 10 day(s).
| Time | Temp. | Humidity | Pressure | Rain* | Wind** | Luminosity | Snow |
|---|---|---|---|---|---|---|---|
| 1778052238 | 21.11° C | 51% | 1011.1 hPa | 0 mm | - | - | - |
| 1778051938 | 21.11° C | 51% | 1011.1 hPa | 0 mm | - | - | - |
| 1778051638 | 21.11° C | 52% | 1011 hPa | 0 mm | - | - | - |
| 1778051337 | 21.11° C | 51% | 1011.1 hPa | 0 mm | - | - | - |
| 1778051037 | 21.11° C | 51% | 1011.1 hPa | 0 mm | - | - | - |
| 1778050737 | 21.11° C | 52% | 1011.2 hPa | 0 mm | - | - | - |
| 1778050436 | 20.56° C | 52% | 1011.2 hPa | 0 mm | - | - | - |
| 1778050136 | 20.56° C | 53% | 1011.2 hPa | 0 mm | - | - | - |
| 1778049836 | 19.44° C | 54% | 1011.2 hPa | 0 mm | - | - | - |
| 1778049536 | 19.44° C | 54% | 1011.2 hPa | 0 mm | - | - | - |
| 1778049235 | 19.44° C | 53% | 1011.3 hPa | 0 mm | - | - | - |
| 1778048935 | 20° C | 53% | 1011.3 hPa | 0 mm | - | - | - |
| 1778048635 | 20.56° C | 52% | 1011.3 hPa | 0 mm | - | - | - |
| 1778048334 | 20.56° C | 53% | 1011.3 hPa | 0 mm | - | - | - |
| 1778048034 | 19.44° C | 54% | 1011.3 hPa | 0 mm | - | - | - |
| 1778047734 | 19.44° C | 54% | 1011.3 hPa | 0 mm | - | - | - |
| 1778047434 | 18.89° C | 56% | 1011.3 hPa | 0 mm | - | - | - |
| 1778047133 | 18.33° C | 56% | 1011.4 hPa | 0 mm | - | - | - |
| 1778046833 | 17.78° C | 57% | 1011.5 hPa | 0 mm | - | - | - |
| 1778046533 | 17.78° C | 57% | 1011.5 hPa | 0 mm | - | - | - |
| 1778046232 | 17.78° C | 56% | 1011.5 hPa | 0 mm | - | - | - |
| 1778045932 | 18.33° C | 55% | 1011.5 hPa | 0 mm | - | - | - |
| 1778045632 | 19.44° C | 53% | 1011.5 hPa | 0 mm | - | - | - |
| 1778045331 | 20° C | 53% | 1011.5 hPa | 0 mm | - | - | - |
| 1778045031 | 19.44° C | 56% | 1011.4 hPa | 0 mm | - | - | - |
* Rain latest hour (hover to see other rain measurements)
** Current wind speed in m/s (hover to see current wind gust speed)